Douglas, Illinois
Current Conditions -  °F | °C
As of 9:55 AM on Friday 24 Oct 2014 (Local Time) from K1H2 Reporting Station
Scattered Clouds Scattered Clouds  
Wind Chill: 58°   Ceiling: Unl
Heat Index: 58°   Visibility: 10mi
Dew Point: 47°   Wind: 0mph
Humidity: 69%   Direction: NA
Pressure: 30.11"   Gusts: NA
Location:  39.1183°N, 88.6059°W
Report Text: K1H2 241455Z AUTO 00000KT 10SM SCT060 14/09 A3011 RMK AO2 T01420085
Loading
Personal Weather Stations






























Interactive Weather Map
Tropical Storm Tracking
New forecast layout! Learn more

10-Day Weather Forecast

Advertisements
Track Severe Weather on mobile